sensor_id;sensor_type;location;lat;lon;timestamp;P1;durP1;ratioP1;P2;durP2;ratioP2
51270;SDS011;37744;50.960;4.136;2022-07-06T00:00:31;3.90;;;2.08;;
51270;SDS011;37744;50.960;4.136;2022-07-06T00:02:56;2.40;;;2.17;;
51270;SDS011;37744;50.960;4.136;2022-07-06T00:05:22;3.92;;;2.35;;
51270;SDS011;37744;50.960;4.136;2022-07-06T00:07:47;5.40;;;2.30;;
51270;SDS011;37744;50.960;4.136;2022-07-06T00:10:13;3.35;;;1.90;;
51270;SDS011;37744;50.960;4.136;2022-07-06T00:12:38;5.45;;;2.78;;
51270;SDS011;37744;50.960;4.136;2022-07-06T00:15:04;3.92;;;2.47;;
51270;SDS011;37744;50.960;4.136;2022-07-06T00:17:30;4.95;;;2.63;;
51270;SDS011;37744;50.960;4.136;2022-07-06T00:19:55;3.20;;;2.60;;
51270;SDS011;37744;50.960;4.136;2022-07-06T00:22:21;5.03;;;2.53;;
51270;SDS011;37744;50.960;4.136;2022-07-06T00:24:46;3.33;;;2.63;;
51270;SDS011;37744;50.960;4.136;2022-07-06T00:27:11;2.92;;;2.20;;
51270;SDS011;37744;50.960;4.136;2022-07-06T00:29:37;4.47;;;2.20;;
51270;SDS011;37744;50.960;4.136;2022-07-06T00:32:02;3.00;;;2.30;;
51270;SDS011;37744;50.960;4.136;2022-07-06T00:34:28;3.33;;;2.75;;
51270;SDS011;37744;50.960;4.136;2022-07-06T00:36:53;3.22;;;2.30;;
51270;SDS011;37744;50.960;4.136;2022-07-06T00:39:19;2.63;;;2.22;;
51270;SDS011;37744;50.960;4.136;2022-07-06T00:41:47;3.30;;;2.60;;
51270;SDS011;37744;50.960;4.136;2022-07-06T00:44:12;2.75;;;2.53;;
51270;SDS011;37744;50.960;4.136;2022-07-06T00:46:39;3.88;;;2.63;;
51270;SDS011;37744;50.960;4.136;2022-07-06T00:49:06;2.38;;;2.17;;
51270;SDS011;37744;50.960;4.136;2022-07-06T00:51:51;4.22;;;2.40;;
51270;SDS011;37744;50.960;4.136;2022-07-06T00:54:18;3.10;;;2.33;;
51270;SDS011;37744;50.960;4.136;2022-07-06T00:56:44;4.22;;;2.90;;
51270;SDS011;37744;50.960;4.136;2022-07-06T00:59:09;3.53;;;2.85;;
51270;SDS011;37744;50.960;4.136;2022-07-06T01:01:34;5.05;;;3.35;;
51270;SDS011;37744;50.960;4.136;2022-07-06T01:04:00;3.67;;;2.80;;
51270;SDS011;37744;50.960;4.136;2022-07-06T01:06:25;2.90;;;2.65;;
51270;SDS011;37744;50.960;4.136;2022-07-06T01:08:51;3.38;;;2.72;;
51270;SDS011;37744;50.960;4.136;2022-07-06T01:11:17;2.83;;;2.50;;
51270;SDS011;37744;50.960;4.136;2022-07-06T01:13:44;4.35;;;2.80;;
51270;SDS011;37744;50.960;4.136;2022-07-06T01:16:11;2.88;;;2.60;;
51270;SDS011;37744;50.960;4.136;2022-07-06T01:18:37;5.20;;;3.30;;
51270;SDS011;37744;50.960;4.136;2022-07-06T01:23:45;3.63;;;2.88;;
51270;SDS011;37744;50.960;4.136;2022-07-06T01:26:13;6.22;;;2.90;;
51270;SDS011;37744;50.960;4.136;2022-07-06T01:28:40;4.28;;;2.95;;
51270;SDS011;37744;50.960;4.136;2022-07-06T01:31:19;4.28;;;3.13;;
51270;SDS011;37744;50.960;4.136;2022-07-06T01:33:45;3.60;;;2.85;;
51270;SDS011;37744;50.960;4.136;2022-07-06T01:36:11;4.00;;;3.05;;
51270;SDS011;37744;50.960;4.136;2022-07-06T01:38:50;4.30;;;2.50;;
51270;SDS011;37744;50.960;4.136;2022-07-06T01:41:16;3.63;;;2.75;;
51270;SDS011;37744;50.960;4.136;2022-07-06T01:43:43;3.40;;;2.55;;
51270;SDS011;37744;50.960;4.136;2022-07-06T01:46:09;3.92;;;3.05;;
51270;SDS011;37744;50.960;4.136;2022-07-06T01:48:35;3.63;;;2.90;;
51270;SDS011;37744;50.960;4.136;2022-07-06T01:51:02;3.20;;;2.70;;
51270;SDS011;37744;50.960;4.136;2022-07-06T01:53:29;2.83;;;2.63;;
51270;SDS011;37744;50.960;4.136;2022-07-06T01:55:54;4.10;;;3.10;;
51270;SDS011;37744;50.960;4.136;2022-07-06T01:58:20;6.22;;;4.20;;
51270;SDS011;37744;50.960;4.136;2022-07-06T02:00:47;5.55;;;4.18;;
51270;SDS011;37744;50.960;4.136;2022-07-06T02:03:12;5.38;;;4.40;;
51270;SDS011;37744;50.960;4.136;2022-07-06T02:05:39;5.53;;;4.07;;
51270;SDS011;37744;50.960;4.136;2022-07-06T02:08:05;5.85;;;3.65;;
51270;SDS011;37744;50.960;4.136;2022-07-06T02:10:30;5.28;;;4.40;;
51270;SDS011;37744;50.960;4.136;2022-07-06T02:12:56;6.47;;;3.95;;
51270;SDS011;37744;50.960;4.136;2022-07-06T02:15:22;5.68;;;4.25;;
51270;SDS011;37744;50.960;4.136;2022-07-06T02:17:48;4.57;;;3.85;;
51270;SDS011;37744;50.960;4.136;2022-07-06T02:20:13;4.45;;;4.00;;
51270;SDS011;37744;50.960;4.136;2022-07-06T02:22:38;5.55;;;4.10;;
51270;SDS011;37744;50.960;4.136;2022-07-06T02:25:04;5.25;;;4.20;;
51270;SDS011;37744;50.960;4.136;2022-07-06T02:27:30;4.40;;;3.92;;
51270;SDS011;37744;50.960;4.136;2022-07-06T02:29:56;5.28;;;3.70;;
51270;SDS011;37744;50.960;4.136;2022-07-06T02:32:21;3.90;;;3.47;;
51270;SDS011;37744;50.960;4.136;2022-07-06T02:34:47;3.58;;;3.28;;
51270;SDS011;37744;50.960;4.136;2022-07-06T02:37:13;6.20;;;3.85;;
51270;SDS011;37744;50.960;4.136;2022-07-06T02:39:38;3.70;;;3.35;;
51270;SDS011;37744;50.960;4.136;2022-07-06T02:42:04;6.47;;;4.40;;
51270;SDS011;37744;50.960;4.136;2022-07-06T02:44:30;5.15;;;3.97;;
51270;SDS011;37744;50.960;4.136;2022-07-06T02:46:55;5.07;;;3.72;;
51270;SDS011;37744;50.960;4.136;2022-07-06T02:49:21;4.40;;;3.83;;
51270;SDS011;37744;50.960;4.136;2022-07-06T02:51:47;7.55;;;4.18;;
51270;SDS011;37744;50.960;4.136;2022-07-06T02:54:12;7.53;;;4.32;;
51270;SDS011;37744;50.960;4.136;2022-07-06T02:56:38;4.95;;;4.15;;
51270;SDS011;37744;50.960;4.136;2022-07-06T02:59:03;5.53;;;3.97;;
51270;SDS011;37744;50.960;4.136;2022-07-06T03:01:29;7.68;;;4.18;;
51270;SDS011;37744;50.960;4.136;2022-07-06T03:03:55;7.32;;;4.10;;
51270;SDS011;37744;50.960;4.136;2022-07-06T03:06:21;6.72;;;3.83;;
51270;SDS011;37744;50.960;4.136;2022-07-06T03:08:46;8.48;;;4.28;;
51270;SDS011;37744;50.960;4.136;2022-07-06T03:11:11;6.15;;;4.30;;
51270;SDS011;37744;50.960;4.136;2022-07-06T03:13:37;5.88;;;4.32;;
51270;SDS011;37744;50.960;4.136;2022-07-06T03:16:08;4.95;;;4.22;;
51270;SDS011;37744;50.960;4.136;2022-07-06T03:18:35;6.07;;;4.30;;
51270;SDS011;37744;50.960;4.136;2022-07-06T03:21:00;5.45;;;4.05;;
51270;SDS011;37744;50.960;4.136;2022-07-06T03:23:29;4.40;;;3.58;;
51270;SDS011;37744;50.960;4.136;2022-07-06T03:25:55;4.10;;;3.70;;
51270;SDS011;37744;50.960;4.136;2022-07-06T03:28:22;5.82;;;4.15;;
51270;SDS011;37744;50.960;4.136;2022-07-06T03:30:48;8.15;;;3.90;;
51270;SDS011;37744;50.960;4.136;2022-07-06T03:33:14;6.13;;;4.38;;
51270;SDS011;37744;50.960;4.136;2022-07-06T03:35:40;5.80;;;4.22;;
51270;SDS011;37744;50.960;4.136;2022-07-06T03:38:05;7.45;;;4.40;;
51270;SDS011;37744;50.960;4.136;2022-07-06T03:40:31;5.32;;;3.60;;
51270;SDS011;37744;50.960;4.136;2022-07-06T03:42:58;6.00;;;4.40;;
51270;SDS011;37744;50.960;4.136;2022-07-06T03:45:24;4.28;;;3.88;;
51270;SDS011;37744;50.960;4.136;2022-07-06T03:47:50;4.85;;;4.28;;
51270;SDS011;37744;50.960;4.136;2022-07-06T03:50:15;6.53;;;4.05;;
51270;SDS011;37744;50.960;4.136;2022-07-06T03:52:41;5.63;;;4.20;;
51270;SDS011;37744;50.960;4.136;2022-07-06T03:55:10;8.65;;;4.85;;
51270;SDS011;37744;50.960;4.136;2022-07-06T03:57:36;6.00;;;4.90;;
51270;SDS011;37744;50.960;4.136;2022-07-06T04:00:03;5.88;;;4.38;;
51270;SDS011;37744;50.960;4.136;2022-07-06T04:02:29;6.90;;;3.65;;
51270;SDS011;37744;50.960;4.136;2022-07-06T04:04:55;6.57;;;3.92;;
51270;SDS011;37744;50.960;4.136;2022-07-06T04:07:20;7.68;;;5.00;;
51270;SDS011;37744;50.960;4.136;2022-07-06T04:09:46;6.05;;;4.68;;
51270;SDS011;37744;50.960;4.136;2022-07-06T04:12:11;9.23;;;5.28;;
51270;SDS011;37744;50.960;4.136;2022-07-06T04:14:37;6.88;;;4.78;;
51270;SDS011;37744;50.960;4.136;2022-07-06T04:17:04;7.20;;;4.40;;
51270;SDS011;37744;50.960;4.136;2022-07-06T04:19:49;5.32;;;4.60;;
51270;SDS011;37744;50.960;4.136;2022-07-06T04:22:15;7.03;;;4.25;;
51270;SDS011;37744;50.960;4.136;2022-07-06T04:24:40;7.47;;;4.95;;
51270;SDS011;37744;50.960;4.136;2022-07-06T04:27:06;6.60;;;4.60;;
51270;SDS011;37744;50.960;4.136;2022-07-06T04:29:31;6.82;;;5.05;;
51270;SDS011;37744;50.960;4.136;2022-07-06T04:31:57;7.32;;;4.90;;
51270;SDS011;37744;50.960;4.136;2022-07-06T04:34:22;6.53;;;4.93;;
51270;SDS011;37744;50.960;4.136;2022-07-06T04:36:49;6.82;;;4.97;;
51270;SDS011;37744;50.960;4.136;2022-07-06T04:39:14;5.70;;;4.50;;
51270;SDS011;37744;50.960;4.136;2022-07-06T04:41:39;5.47;;;4.35;;
51270;SDS011;37744;50.960;4.136;2022-07-06T04:44:05;5.60;;;4.55;;
51270;SDS011;37744;50.960;4.136;2022-07-06T04:46:30;6.88;;;4.78;;
51270;SDS011;37744;50.960;4.136;2022-07-06T04:48:56;5.30;;;4.80;;
51270;SDS011;37744;50.960;4.136;2022-07-06T04:51:21;6.43;;;4.90;;
51270;SDS011;37744;50.960;4.136;2022-07-06T04:53:47;7.07;;;4.65;;
51270;SDS011;37744;50.960;4.136;2022-07-06T04:56:12;8.75;;;5.22;;
51270;SDS011;37744;50.960;4.136;2022-07-06T04:58:37;7.72;;;4.93;;
51270;SDS011;37744;50.960;4.136;2022-07-06T05:01:03;6.72;;;5.03;;
51270;SDS011;37744;50.960;4.136;2022-07-06T05:03:29;7.00;;;4.75;;
51270;SDS011;37744;50.960;4.136;2022-07-06T05:05:56;7.50;;;5.20;;
51270;SDS011;37744;50.960;4.136;2022-07-06T05:08:21;7.30;;;4.45;;
51270;SDS011;37744;50.960;4.136;2022-07-06T05:10:48;7.10;;;5.00;;
51270;SDS011;37744;50.960;4.136;2022-07-06T05:13:14;7.15;;;5.00;;
51270;SDS011;37744;50.960;4.136;2022-07-06T05:15:40;6.72;;;5.10;;
51270;SDS011;37744;50.960;4.136;2022-07-06T05:18:06;6.05;;;5.20;;
51270;SDS011;37744;50.960;4.136;2022-07-06T05:20:33;7.88;;;4.97;;
51270;SDS011;37744;50.960;4.136;2022-07-06T05:22:58;6.53;;;4.43;;
51270;SDS011;37744;50.960;4.136;2022-07-06T05:25:25;7.22;;;5.40;;
51270;SDS011;37744;50.960;4.136;2022-07-06T05:27:50;7.13;;;5.22;;
51270;SDS011;37744;50.960;4.136;2022-07-06T05:30:16;6.68;;;5.25;;
51270;SDS011;37744;50.960;4.136;2022-07-06T05:32:42;9.55;;;5.93;;
51270;SDS011;37744;50.960;4.136;2022-07-06T05:35:08;9.00;;;6.03;;
51270;SDS011;37744;50.960;4.136;2022-07-06T05:37:34;7.45;;;5.63;;
51270;SDS011;37744;50.960;4.136;2022-07-06T05:39:59;10.40;;;5.95;;
51270;SDS011;37744;50.960;4.136;2022-07-06T05:42:27;8.40;;;5.38;;
51270;SDS011;37744;50.960;4.136;2022-07-06T05:44:55;9.25;;;5.38;;
51270;SDS011;37744;50.960;4.136;2022-07-06T05:47:21;9.23;;;5.40;;
51270;SDS011;37744;50.960;4.136;2022-07-06T05:50:06;10.02;;;6.32;;
51270;SDS011;37744;50.960;4.136;2022-07-06T05:52:40;9.90;;;6.13;;
51270;SDS011;37744;50.960;4.136;2022-07-06T05:55:08;9.57;;;6.25;;
51270;SDS011;37744;50.960;4.136;2022-07-06T05:57:34;8.88;;;5.47;;
51270;SDS011;37744;50.960;4.136;2022-07-06T05:59:59;11.10;;;6.53;;
51270;SDS011;37744;50.960;4.136;2022-07-06T06:02:25;9.63;;;6.00;;
51270;SDS011;37744;50.960;4.136;2022-07-06T06:04:53;7.70;;;5.75;;
51270;SDS011;37744;50.960;4.136;2022-07-06T06:07:19;10.32;;;5.70;;
51270;SDS011;37744;50.960;4.136;2022-07-06T06:09:45;7.20;;;5.32;;
51270;SDS011;37744;50.960;4.136;2022-07-06T06:12:12;10.55;;;6.78;;
51270;SDS011;37744;50.960;4.136;2022-07-06T06:14:37;12.68;;;5.63;;
51270;SDS011;37744;50.960;4.136;2022-07-06T06:17:02;9.15;;;5.75;;
51270;SDS011;37744;50.960;4.136;2022-07-06T06:19:33;8.15;;;5.65;;
51270;SDS011;37744;50.960;4.136;2022-07-06T06:22:01;9.98;;;5.90;;
51270;SDS011;37744;50.960;4.136;2022-07-06T06:24:27;8.05;;;5.95;;
51270;SDS011;37744;50.960;4.136;2022-07-06T06:26:53;10.45;;;5.95;;
51270;SDS011;37744;50.960;4.136;2022-07-06T06:29:18;7.88;;;6.22;;
51270;SDS011;37744;50.960;4.136;2022-07-06T06:31:45;10.10;;;6.13;;
51270;SDS011;37744;50.960;4.136;2022-07-06T06:34:13;8.82;;;6.20;;
51270;SDS011;37744;50.960;4.136;2022-07-06T06:36:38;13.00;;;6.75;;
51270;SDS011;37744;50.960;4.136;2022-07-06T06:39:04;9.93;;;6.15;;
51270;SDS011;37744;50.960;4.136;2022-07-06T06:41:29;8.65;;;5.93;;
51270;SDS011;37744;50.960;4.136;2022-07-06T06:43:55;10.52;;;6.95;;
51270;SDS011;37744;50.960;4.136;2022-07-06T06:46:21;11.30;;;6.50;;
51270;SDS011;37744;50.960;4.136;2022-07-06T06:48:47;10.32;;;6.22;;
51270;SDS011;37744;50.960;4.136;2022-07-06T06:51:14;10.43;;;6.88;;
51270;SDS011;37744;50.960;4.136;2022-07-06T06:53:42;10.43;;;6.38;;
51270;SDS011;37744;50.960;4.136;2022-07-06T06:56:09;7.28;;;5.78;;
51270;SDS011;37744;50.960;4.136;2022-07-06T06:58:35;8.38;;;6.15;;
51270;SDS011;37744;50.960;4.136;2022-07-06T07:01:02;8.57;;;5.25;;
51270;SDS011;37744;50.960;4.136;2022-07-06T07:03:30;12.10;;;7.00;;
51270;SDS011;37744;50.960;4.136;2022-07-06T07:05:57;12.75;;;5.47;;
51270;SDS011;37744;50.960;4.136;2022-07-06T07:08:22;11.18;;;5.63;;
51270;SDS011;37744;50.960;4.136;2022-07-06T07:10:49;7.22;;;5.45;;
51270;SDS011;37744;50.960;4.136;2022-07-06T07:13:16;7.63;;;5.18;;
51270;SDS011;37744;50.960;4.136;2022-07-06T07:15:42;9.90;;;5.15;;
51270;SDS011;37744;50.960;4.136;2022-07-06T07:18:09;9.65;;;5.28;;
51270;SDS011;37744;50.960;4.136;2022-07-06T07:20:35;8.32;;;5.78;;
51270;SDS011;37744;50.960;4.136;2022-07-06T07:23:00;7.13;;;5.60;;
51270;SDS011;37744;50.960;4.136;2022-07-06T07:25:27;7.50;;;5.10;;
51270;SDS011;37744;50.960;4.136;2022-07-06T07:27:52;8.25;;;4.80;;
51270;SDS011;37744;50.960;4.136;2022-07-06T07:30:18;6.28;;;4.50;;
51270;SDS011;37744;50.960;4.136;2022-07-06T07:32:44;6.85;;;4.82;;
51270;SDS011;37744;50.960;4.136;2022-07-06T07:35:09;7.32;;;3.72;;
51270;SDS011;37744;50.960;4.136;2022-07-06T07:37:35;4.97;;;4.32;;
51270;SDS011;37744;50.960;4.136;2022-07-06T07:40:01;7.65;;;4.50;;
51270;SDS011;37744;50.960;4.136;2022-07-06T07:42:27;8.38;;;4.57;;
51270;SDS011;37744;50.960;4.136;2022-07-06T07:44:56;7.78;;;4.40;;
51270;SDS011;37744;50.960;4.136;2022-07-06T07:47:21;10.43;;;4.40;;
51270;SDS011;37744;50.960;4.136;2022-07-06T07:49:47;5.43;;;4.15;;
51270;SDS011;37744;50.960;4.136;2022-07-06T07:52:12;4.55;;;3.20;;
51270;SDS011;37744;50.960;4.136;2022-07-06T07:54:38;4.97;;;3.03;;
51270;SDS011;37744;50.960;4.136;2022-07-06T07:57:05;4.88;;;4.03;;
51270;SDS011;37744;50.960;4.136;2022-07-06T07:59:31;5.10;;;3.53;;
51270;SDS011;37744;50.960;4.136;2022-07-06T08:01:57;7.28;;;3.30;;
51270;SDS011;37744;50.960;4.136;2022-07-06T08:04:22;5.50;;;3.15;;
51270;SDS011;37744;50.960;4.136;2022-07-06T08:06:49;8.18;;;3.70;;
51270;SDS011;37744;50.960;4.136;2022-07-06T08:09:16;8.32;;;3.83;;
51270;SDS011;37744;50.960;4.136;2022-07-06T08:11:44;7.97;;;3.85;;
51270;SDS011;37744;50.960;4.136;2022-07-06T08:14:10;7.22;;;3.90;;
51270;SDS011;37744;50.960;4.136;2022-07-06T08:16:37;5.95;;;3.35;;
51270;SDS011;37744;50.960;4.136;2022-07-06T08:19:04;7.72;;;3.80;;
51270;SDS011;37744;50.960;4.136;2022-07-06T08:21:30;7.18;;;3.42;;
51270;SDS011;37744;50.960;4.136;2022-07-06T08:23:55;7.25;;;4.20;;
51270;SDS011;37744;50.960;4.136;2022-07-06T08:26:22;8.80;;;4.22;;
51270;SDS011;37744;50.960;4.136;2022-07-06T08:28:48;9.43;;;4.20;;
51270;SDS011;37744;50.960;4.136;2022-07-06T08:31:16;7.07;;;3.38;;
51270;SDS011;37744;50.960;4.136;2022-07-06T08:33:44;7.00;;;3.60;;
51270;SDS011;37744;50.960;4.136;2022-07-06T08:36:10;9.70;;;3.83;;
51270;SDS011;37744;50.960;4.136;2022-07-06T08:38:37;5.40;;;3.63;;
51270;SDS011;37744;50.960;4.136;2022-07-06T08:41:02;8.10;;;3.70;;
51270;SDS011;37744;50.960;4.136;2022-07-06T08:43:34;10.48;;;3.95;;
51270;SDS011;37744;50.960;4.136;2022-07-06T08:46:01;8.45;;;3.38;;
51270;SDS011;37744;50.960;4.136;2022-07-06T08:48:30;6.45;;;3.60;;
51270;SDS011;37744;50.960;4.136;2022-07-06T08:53:29;7.10;;;3.75;;
51270;SDS011;37744;50.960;4.136;2022-07-06T08:55:55;5.28;;;3.35;;
51270;SDS011;37744;50.960;4.136;2022-07-06T08:58:23;5.25;;;3.38;;
51270;SDS011;37744;50.960;4.136;2022-07-06T09:00:49;7.70;;;3.30;;
51270;SDS011;37744;50.960;4.136;2022-07-06T09:03:15;8.27;;;4.28;;
51270;SDS011;37744;50.960;4.136;2022-07-06T09:05:44;7.53;;;3.95;;
51270;SDS011;37744;50.960;4.136;2022-07-06T09:08:11;5.80;;;3.17;;
51270;SDS011;37744;50.960;4.136;2022-07-06T09:10:37;5.43;;;3.53;;
51270;SDS011;37744;50.960;4.136;2022-07-06T09:13:07;8.65;;;3.75;;
51270;SDS011;37744;50.960;4.136;2022-07-06T09:15:37;8.13;;;3.92;;
51270;SDS011;37744;50.960;4.136;2022-07-06T09:18:07;6.30;;;3.30;;
51270;SDS011;37744;50.960;4.136;2022-07-06T09:20:34;7.35;;;3.30;;
51270;SDS011;37744;50.960;4.136;2022-07-06T09:23:03;4.72;;;3.08;;
51270;SDS011;37744;50.960;4.136;2022-07-06T09:25:30;6.03;;;3.10;;
51270;SDS011;37744;50.960;4.136;2022-07-06T09:27:57;7.93;;;3.65;;
51270;SDS011;37744;50.960;4.136;2022-07-06T09:30:26;8.32;;;3.13;;
51270;SDS011;37744;50.960;4.136;2022-07-06T09:32:53;6.60;;;4.03;;
51270;SDS011;37744;50.960;4.136;2022-07-06T09:35:31;5.57;;;3.03;;
51270;SDS011;37744;50.960;4.136;2022-07-06T09:40:36;6.32;;;2.80;;
51270;SDS011;37744;50.960;4.136;2022-07-06T09:45:42;5.85;;;3.42;;
51270;SDS011;37744;50.960;4.136;2022-07-06T09:48:16;5.20;;;2.80;;
51270;SDS011;37744;50.960;4.136;2022-07-06T09:50:49;6.70;;;2.65;;
51270;SDS011;37744;50.960;4.136;2022-07-06T09:53:19;8.27;;;2.92;;
51270;SDS011;37744;50.960;4.136;2022-07-06T09:55:49;5.53;;;3.58;;
51270;SDS011;37744;50.960;4.136;2022-07-06T09:58:16;6.20;;;2.70;;
51270;SDS011;37744;50.960;4.136;2022-07-06T10:00:43;4.40;;;2.58;;
51270;SDS011;37744;50.960;4.136;2022-07-06T10:03:11;6.28;;;2.90;;
51270;SDS011;37744;50.960;4.136;2022-07-06T10:05:38;4.03;;;2.83;;
51270;SDS011;37744;50.960;4.136;2022-07-06T10:08:06;6.47;;;3.13;;
51270;SDS011;37744;50.960;4.136;2022-07-06T10:10:38;8.00;;;3.00;;
51270;SDS011;37744;50.960;4.136;2022-07-06T10:13:06;6.30;;;3.58;;
51270;SDS011;37744;50.960;4.136;2022-07-06T10:15:34;4.28;;;3.38;;
51270;SDS011;37744;50.960;4.136;2022-07-06T10:18:01;7.32;;;3.28;;
51270;SDS011;37744;50.960;4.136;2022-07-06T10:20:30;4.35;;;2.88;;
51270;SDS011;37744;50.960;4.136;2022-07-06T10:23:01;5.43;;;2.92;;
51270;SDS011;37744;50.960;4.136;2022-07-06T10:25:28;4.10;;;2.90;;
51270;SDS011;37744;50.960;4.136;2022-07-06T10:27:54;8.40;;;3.03;;
51270;SDS011;37744;50.960;4.136;2022-07-06T10:30:22;5.10;;;2.67;;
51270;SDS011;37744;50.960;4.136;2022-07-06T10:32:48;5.40;;;2.63;;
51270;SDS011;37744;50.960;4.136;2022-07-06T10:35:16;6.28;;;3.03;;
51270;SDS011;37744;50.960;4.136;2022-07-06T10:37:44;4.35;;;2.58;;
51270;SDS011;37744;50.960;4.136;2022-07-06T10:40:15;5.05;;;3.15;;
51270;SDS011;37744;50.960;4.136;2022-07-06T10:42:59;3.53;;;2.08;;
51270;SDS011;37744;50.960;4.136;2022-07-06T10:50:41;3.47;;;2.40;;
51270;SDS011;37744;50.960;4.136;2022-07-06T10:53:15;5.20;;;2.40;;
51270;SDS011;37744;50.960;4.136;2022-07-06T10:55:43;5.53;;;2.55;;
51270;SDS011;37744;50.960;4.136;2022-07-06T10:58:12;8.27;;;3.15;;
51270;SDS011;37744;50.960;4.136;2022-07-06T11:00:52;7.25;;;2.63;;
51270;SDS011;37744;50.960;4.136;2022-07-06T11:03:35;9.75;;;2.80;;
51270;SDS011;37744;50.960;4.136;2022-07-06T11:06:07;3.88;;;2.38;;
51270;SDS011;37744;50.960;4.136;2022-07-06T11:08:43;5.50;;;2.65;;
51270;SDS011;37744;50.960;4.136;2022-07-06T11:14:00;6.28;;;2.90;;
51270;SDS011;37744;50.960;4.136;2022-07-06T11:16:36;6.25;;;2.80;;
51270;SDS011;37744;50.960;4.136;2022-07-06T11:19:06;7.65;;;2.70;;
51270;SDS011;37744;50.960;4.136;2022-07-06T11:21:46;7.32;;;2.70;;
51270;SDS011;37744;50.960;4.136;2022-07-06T11:24:30;4.13;;;2.63;;
51270;SDS011;37744;50.960;4.136;2022-07-06T11:26:59;5.57;;;2.60;;
51270;SDS011;37744;50.960;4.136;2022-07-06T11:29:26;6.78;;;2.20;;
51270;SDS011;37744;50.960;4.136;2022-07-06T11:31:54;4.25;;;2.28;;
51270;SDS011;37744;50.960;4.136;2022-07-06T11:34:26;5.43;;;2.63;;
51270;SDS011;37744;50.960;4.136;2022-07-06T11:36:59;5.57;;;2.28;;
51270;SDS011;37744;50.960;4.136;2022-07-06T11:39:29;3.22;;;2.28;;
51270;SDS011;37744;50.960;4.136;2022-07-06T11:41:57;4.53;;;2.55;;
51270;SDS011;37744;50.960;4.136;2022-07-06T11:44:23;5.00;;;1.60;;
51270;SDS011;37744;50.960;4.136;2022-07-06T11:46:50;8.70;;;1.90;;
51270;SDS011;37744;50.960;4.136;2022-07-06T11:49:18;3.38;;;1.58;;
51270;SDS011;37744;50.960;4.136;2022-07-06T11:51:44;2.55;;;1.30;;
51270;SDS011;37744;50.960;4.136;2022-07-06T11:54:11;3.00;;;1.63;;
51270;SDS011;37744;50.960;4.136;2022-07-06T11:56:48;3.97;;;1.17;;
51270;SDS011;37744;50.960;4.136;2022-07-06T11:59:15;1.63;;;1.38;;
51270;SDS011;37744;50.960;4.136;2022-07-06T12:01:41;2.42;;;1.70;;
51270;SDS011;37744;50.960;4.136;2022-07-06T12:04:09;6.55;;;1.98;;
51270;SDS011;37744;50.960;4.136;2022-07-06T12:06:35;4.13;;;1.75;;
51270;SDS011;37744;50.960;4.136;2022-07-06T12:09:00;1.83;;;1.35;;
51270;SDS011;37744;50.960;4.136;2022-07-06T12:11:38;2.33;;;1.48;;
51270;SDS011;37744;50.960;4.136;2022-07-06T12:14:18;3.35;;;1.48;;
51270;SDS011;37744;50.960;4.136;2022-07-06T12:16:46;5.28;;;1.80;;
51270;SDS011;37744;50.960;4.136;2022-07-06T12:19:13;3.38;;;1.60;;
51270;SDS011;37744;50.960;4.136;2022-07-06T12:21:49;3.22;;;1.60;;
51270;SDS011;37744;50.960;4.136;2022-07-06T12:24:24;5.85;;;1.90;;
51270;SDS011;37744;50.960;4.136;2022-07-06T12:26:52;2.80;;;1.42;;
51270;SDS011;37744;50.960;4.136;2022-07-06T12:29:18;6.00;;;1.70;;
51270;SDS011;37744;50.960;4.136;2022-07-06T12:31:54;6.07;;;1.60;;
51270;SDS011;37744;50.960;4.136;2022-07-06T12:34:22;3.65;;;2.05;;
51270;SDS011;37744;50.960;4.136;2022-07-06T12:39:17;5.13;;;1.70;;
51270;SDS011;37744;50.960;4.136;2022-07-06T12:41:48;7.53;;;2.00;;
51270;SDS011;37744;50.960;4.136;2022-07-06T12:44:18;10.77;;;2.33;;
51270;SDS011;37744;50.960;4.136;2022-07-06T12:46:45;5.13;;;2.10;;
51270;SDS011;37744;50.960;4.136;2022-07-06T12:49:16;5.47;;;2.30;;
51270;SDS011;37744;50.960;4.136;2022-07-06T12:51:49;4.40;;;1.65;;
51270;SDS011;37744;50.960;4.136;2022-07-06T12:54:15;4.85;;;2.15;;
51270;SDS011;37744;50.960;4.136;2022-07-06T12:59:32;3.05;;;1.67;;
51270;SDS011;37744;50.960;4.136;2022-07-06T13:02:00;8.18;;;2.38;;
51270;SDS011;37744;50.960;4.136;2022-07-06T13:04:27;5.45;;;1.80;;
51270;SDS011;37744;50.960;4.136;2022-07-06T13:06:59;2.60;;;1.50;;
51270;SDS011;37744;50.960;4.136;2022-07-06T13:09:27;7.45;;;1.85;;
51270;SDS011;37744;50.960;4.136;2022-07-06T13:11:54;8.55;;;1.70;;
51270;SDS011;37744;50.960;4.136;2022-07-06T13:14:21;4.55;;;1.70;;
51270;SDS011;37744;50.960;4.136;2022-07-06T13:16:47;5.55;;;1.55;;
51270;SDS011;37744;50.960;4.136;2022-07-06T13:19:13;2.78;;;1.48;;
51270;SDS011;37744;50.960;4.136;2022-07-06T13:21:40;4.10;;;1.58;;
51270;SDS011;37744;50.960;4.136;2022-07-06T13:24:05;4.47;;;1.55;;
51270;SDS011;37744;50.960;4.136;2022-07-06T13:26:31;2.40;;;1.48;;
51270;SDS011;37744;50.960;4.136;2022-07-06T13:29:02;6.40;;;2.22;;
51270;SDS011;37744;50.960;4.136;2022-07-06T13:31:29;4.00;;;1.50;;
51270;SDS011;37744;50.960;4.136;2022-07-06T13:33:55;3.67;;;1.67;;
51270;SDS011;37744;50.960;4.136;2022-07-06T13:36:20;3.53;;;1.67;;
51270;SDS011;37744;50.960;4.136;2022-07-06T13:38:46;3.05;;;1.48;;
51270;SDS011;37744;50.960;4.136;2022-07-06T13:41:13;3.17;;;1.58;;
51270;SDS011;37744;50.960;4.136;2022-07-06T13:43:38;5.32;;;1.85;;
51270;SDS011;37744;50.960;4.136;2022-07-06T13:46:05;3.53;;;1.67;;
51270;SDS011;37744;50.960;4.136;2022-07-06T13:48:32;5.63;;;1.60;;
51270;SDS011;37744;50.960;4.136;2022-07-06T13:50:59;2.97;;;1.60;;
51270;SDS011;37744;50.960;4.136;2022-07-06T13:53:25;4.10;;;1.55;;
51270;SDS011;37744;50.960;4.136;2022-07-06T13:55:52;4.72;;;1.48;;
51270;SDS011;37744;50.960;4.136;2022-07-06T13:58:19;3.83;;;1.20;;
51270;SDS011;37744;50.960;4.136;2022-07-06T14:00:45;3.63;;;1.40;;
51270;SDS011;37744;50.960;4.136;2022-07-06T14:03:12;3.30;;;1.50;;
51270;SDS011;37744;50.960;4.136;2022-07-06T14:05:37;1.90;;;1.25;;
51270;SDS011;37744;50.960;4.136;2022-07-06T14:08:04;3.97;;;1.48;;
51270;SDS011;37744;50.960;4.136;2022-07-06T14:10:29;1.40;;;1.27;;
51270;SDS011;37744;50.960;4.136;2022-07-06T14:12:55;3.50;;;1.48;;
51270;SDS011;37744;50.960;4.136;2022-07-06T14:15:20;3.53;;;1.73;;
51270;SDS011;37744;50.960;4.136;2022-07-06T14:17:47;4.70;;;1.33;;
51270;SDS011;37744;50.960;4.136;2022-07-06T14:20:13;3.38;;;1.38;;
51270;SDS011;37744;50.960;4.136;2022-07-06T14:22:39;3.05;;;1.50;;
51270;SDS011;37744;50.960;4.136;2022-07-06T14:25:04;3.70;;;1.45;;
51270;SDS011;37744;50.960;4.136;2022-07-06T14:27:32;5.13;;;1.52;;
51270;SDS011;37744;50.960;4.136;2022-07-06T14:29:58;2.20;;;1.30;;
51270;SDS011;37744;50.960;4.136;2022-07-06T14:32:24;5.57;;;1.70;;
51270;SDS011;37744;50.960;4.136;2022-07-06T14:34:50;2.33;;;1.60;;
51270;SDS011;37744;50.960;4.136;2022-07-06T14:37:15;3.05;;;1.95;;
51270;SDS011;37744;50.960;4.136;2022-07-06T14:39:41;5.20;;;1.58;;
51270;SDS011;37744;50.960;4.136;2022-07-06T14:42:07;3.28;;;1.65;;
51270;SDS011;37744;50.960;4.136;2022-07-06T14:44:33;3.25;;;1.25;;
51270;SDS011;37744;50.960;4.136;2022-07-06T14:47:00;5.03;;;1.70;;
51270;SDS011;37744;50.960;4.136;2022-07-06T14:49:26;3.67;;;1.63;;
51270;SDS011;37744;50.960;4.136;2022-07-06T14:51:52;3.35;;;1.77;;
51270;SDS011;37744;50.960;4.136;2022-07-06T14:54:19;8.38;;;2.00;;
51270;SDS011;37744;50.960;4.136;2022-07-06T14:56:44;2.25;;;1.70;;
51270;SDS011;37744;50.960;4.136;2022-07-06T14:59:11;4.00;;;1.50;;
51270;SDS011;37744;50.960;4.136;2022-07-06T15:01:36;3.03;;;1.60;;
51270;SDS011;37744;50.960;4.136;2022-07-06T15:04:02;4.20;;;1.70;;
51270;SDS011;37744;50.960;4.136;2022-07-06T15:06:27;3.58;;;1.67;;
51270;SDS011;37744;50.960;4.136;2022-07-06T15:08:54;6.88;;;1.88;;
51270;SDS011;37744;50.960;4.136;2022-07-06T15:13:48;1.67;;;1.40;;